Boyceville, Wisconsin
Current Conditions -  °F | °C
As of 5:55 AM on Wednesday 28 Jan 2015 (Local Time) from KLUM Reporting Station
Overcast Overcast  
Wind Chill: 16°   Ceiling: 900
Heat Index: 26°   Visibility: 7mi
Dew Point: 23°   Wind: 10mph
Humidity: 87%   Direction: 120°ESE
Pressure: 30.09"   Gusts: NA
Location:  45.04°N, 92.04°W
Report Text: KLUM 281155Z AUTO 12009KT 7SM OVC009 M03/M05 A3009 RMK AO2 T10331052 11027 21033
Loading
Personal Weather Stations






























Interactive Weather Map New forecast layout! Learn more

10-Day Weather Forecast

Advertisements
Track Severe Weather on mobile